Time;durP1;ratioP1;P1;durP2;ratioP2;P2;SDS_P1;SDS_P2;PMS_P1;PMS_P2;Temp;Humidity;BMP_temperature;BMP_pressure;BME280_temperature;BME280_humidity;BME280_pressure;Samples;Min_cycle;Max_cycle;Signal;HPM_P1;HPM_P2
2023/03/24 00:02:36;;;;;;;;;;;;;;;15.13;45.00;100185.38;5357149;32;34904;-64
2023/03/24 00:05:39;;;;;;;;;;;;;;;14.87;45.52;100188.72;5353433;32;36647;-74
2023/03/24 00:08:42;;;;;;;;;;;;;;;15.41;44.32;100188.97;5355466;32;34235;-74
2023/03/24 00:11:44;;;;;;;;;;;;;;;15.76;43.33;100184.09;5373393;32;34932;-63
2023/03/24 00:14:46;;;;;;;;;;;;;;;15.91;42.88;100174.34;5363733;32;35679;-75
2023/03/24 00:17:51;;;;;;;;;;;;;;;16.18;42.14;100172.53;5360936;32;35012;-64
2023/03/24 00:20:57;;;;;;;;;;;;;;;16.49;41.51;100170.53;5372495;32;34860;-72
2023/03/24 00:24:00;;;;;;;;;;;;;;;15.73;42.87;100164.94;5356057;32;34188;-76
2023/03/24 00:27:02;;;;;;;;;;;;;;;16.17;42.14;100173.50;5380342;32;34801;-65
2023/03/24 00:30:07;;;;;;;;;;;;;;;15.86;42.74;100171.97;5357254;32;34981;-76
2023/03/24 00:33:10;;;;;;;;;;;;;;;14.92;45.05;100168.12;5373280;32;44673;-64
2023/03/24 00:36:12;;;;;;;;;;;;;;;15.22;44.42;100164.56;5360134;32;37434;-75
2023/03/24 00:39:16;;;;;;;;;;;;;;;16.06;42.32;100154.78;5354762;32;34563;-75
2023/03/24 00:42:18;;;;;;;;;;;;;;;16.00;42.41;100146.38;5371601;32;34920;-75
2023/03/24 00:45:21;;;;;;;;;;;;;;;16.01;42.04;100148.94;5356215;32;34939;-76
2023/03/24 00:48:24;;;;;;;;;;;;;;;15.68;42.45;100121.03;5377846;32;35161;-77
2023/03/24 00:51:28;;;;;;;;;;;;;;;15.74;42.82;100143.62;5358597;32;35499;-76
2023/03/24 00:54:29;;;;;;;;;;;;;;;15.88;42.59;100140.06;5367447;32;35424;-75
2023/03/24 00:57:34;;;;;;;;;;;;;;;15.58;43.16;100129.59;5361819;32;35130;-75
2023/03/24 01:00:40;;;;;;;;;;;;;;;15.47;43.47;100124.16;5354048;32;34632;-75
2023/03/24 01:03:47;;;;;;;;;;;;;;;15.56;43.12;100124.41;5367157;32;46463;-65
2023/03/24 01:06:51;;;;;;;;;;;;;;;14.71;45.34;100125.31;5345879;32;34939;-65
2023/03/24 01:09:56;;;;;;;;;;;;;;;15.11;44.48;100122.88;5373766;32;34942;-72
2023/03/24 01:12:59;;;;;;;;;;;;;;;14.89;44.88;100121.56;5358323;32;35054;-75
2023/03/24 01:16:02;;;;;;;;;;;;;;;15.38;43.78;100120.28;5359448;32;35102;-76
2023/03/24 01:19:05;;;;;;;;;;;;;;;15.19;44.09;100115.28;5371216;32;34996;-75
2023/03/24 01:22:07;;;;;;;;;;;;;;;15.42;43.47;100112.06;5356204;32;34087;-64
2023/03/24 01:25:14;;;;;;;;;;;;;;;15.78;42.62;100099.22;5372388;32;44234;-65
2023/03/24 01:28:22;;;;;;;;;;;;;;;15.95;42.13;100097.16;5356401;32;34406;-64
2023/03/24 01:31:24;;;;;;;;;;;;;;;15.74;42.57;100092.44;5371735;32;34948;-76
2023/03/24 01:34:26;;;;;;;;;;;;;;;14.78;44.91;100097.53;5357774;32;35489;-65
2023/03/24 01:37:28;;;;;;;;;;;;;;;14.50;45.62;100094.87;5356477;32;34590;-64
2023/03/24 01:40:30;;;;;;;;;;;;;;;13.55;48.49;100103.81;5372671;32;35102;-78
2023/03/24 01:43:33;;;;;;;;;;;;;;;14.29;46.61;100099.59;5351578;32;34890;-76
2023/03/24 01:46:35;;;;;;;;;;;;;;;14.38;46.23;100091.13;5374088;32;35210;-64
2023/03/24 01:50:01;;;;;;;;;;;;;;;14.18;46.85;100084.37;5357744;32;35364;-64
2023/03/24 01:53:04;;;;;;;;;;;;;;;14.57;45.81;100090.91;5354310;32;34850;-77
2023/03/24 01:56:06;;;;;;;;;;;;;;;13.81;47.55;100088.28;5366224;32;34808;-64
2023/03/24 01:59:12;;;;;;;;;;;;;;;14.43;46.23;100078.50;5354756;32;32861;-65
2023/03/24 02:02:14;;;;;;;;;;;;;;;13.98;47.29;100088.19;5372252;32;34760;-77
2023/03/24 02:05:16;;;;;;;;;;;;;;;13.96;47.27;100083.91;5340236;32;34806;-74
2023/03/24 02:08:31;;;;;;;;;;;;;;;14.32;46.44;100087.03;5369808;32;36535;-66
2023/03/24 02:11:33;;;;;;;;;;;;;;;14.22;46.37;100077.94;5363916;32;36548;-64
2023/03/24 02:14:35;;;;;;;;;;;;;;;13.86;47.42;100090.69;5355497;32;33731;-64
2023/03/24 02:17:53;;;;;;;;;;;;;;;14.18;46.74;100084.37;5372634;32;35497;-64
2023/03/24 02:21:14;;;;;;;;;;;;;;;14.08;46.91;100078.75;5355902;32;35021;-64
2023/03/24 02:24:35;;;;;;;;;;;;;;;14.71;44.92;100082.97;5375099;32;45090;-66
2023/03/24 02:27:50;;;;;;;;;;;;;;;14.14;46.69;100082.00;5360551;32;34677;-76
2023/03/24 02:31:01;;;;;;;;;;;;;;;14.75;45.10;100080.97;5356388;32;34526;-65
2023/03/24 02:34:12;;;;;;;;;;;;;;;14.31;45.94;100084.50;5371111;32;36944;-75
2023/03/24 02:37:17;;;;;;;;;;;;;;;14.41;45.65;100082.16;5355595;32;47648;-64
2023/03/24 02:40:26;;;;;;;;;;;;;;;14.97;44.13;100078.72;5368699;32;34635;-64
2023/03/24 02:43:37;;;;;;;;;;;;;;;14.31;45.75;100085.34;5356536;32;34984;-63
2023/03/24 02:46:44;;;;;;;;;;;;;;;14.82;44.68;100083.19;5355059;32;44543;-63
2023/03/24 02:49:45;;;;;;;;;;;;;;;14.46;45.36;100086.25;5376902;32;34945;-75
2023/03/24 02:52:49;;;;;;;;;;;;;;;15.11;43.88;100070.78;5355673;32;35722;-75
2023/03/24 02:55:55;;;;;;;;;;;;;;;15.17;43.62;100078.34;5372766;32;34665;-75
2023/03/24 02:58:59;;;;;;;;;;;;;;;14.75;44.52;100051.88;5358257;32;35088;-75
2023/03/24 03:02:02;;;;;;;;;;;;;;;14.82;44.42;100055.88;5360868;32;34956;-63
2023/03/24 03:05:12;;;;;;;;;;;;;;;15.16;43.52;100050.16;5338825;32;34796;-63
2023/03/24 03:08:16;;;;;;;;;;;;;;;14.98;43.94;100050.47;5358604;32;44818;-76
2023/03/24 03:11:18;;;;;;;;;;;;;;;14.35;45.06;100052.47;5373164;32;34941;-77
2023/03/24 03:14:20;;;;;;;;;;;;;;;14.00;46.29;100051.94;5357081;32;35233;-63
2023/03/24 03:17:24;;;;;;;;;;;;;;;14.14;45.93;100047.63;5373170;32;34864;-76
2023/03/24 03:20:29;;;;;;;;;;;;;;;13.23;48.29;100055.44;5360493;32;35002;-64
2023/03/24 03:23:33;;;;;;;;;;;;;;;13.61;47.19;100049.81;5354216;32;35183;-76
2023/03/24 03:26:35;;;;;;;;;;;;;;;13.86;46.93;100062.47;5373171;32;34717;-76
2023/03/24 03:29:38;;;;;;;;;;;;;;;14.75;44.62;100046.59;5355863;32;35283;-65
2023/03/24 03:32:42;;;;;;;;;;;;;;;14.34;45.25;100052.59;5369626;32;47073;-65
2023/03/24 03:35:45;;;;;;;;;;;;;;;13.90;46.45;100050.75;5359170;32;35573;-76
2023/03/24 03:38:50;;;;;;;;;;;;;;;13.55;47.38;100045.72;5372065;32;35462;-64
2023/03/24 03:41:52;;;;;;;;;;;;;;;13.70;47.20;100059.00;5359862;32;35328;-64
2023/03/24 03:44:54;;;;;;;;;;;;;;;13.47;47.60;100047.09;5355235;32;34562;-64
2023/03/24 03:47:56;;;;;;;;;;;;;;;13.29;48.48;100051.63;5372556;32;35782;-64
2023/03/24 03:50:58;;;;;;;;;;;;;;;13.42;48.13;100055.28;5358123;32;34341;-75
2023/03/24 03:54:14;;;;;;;;;;;;;;;13.32;48.57;100046.16;5371915;32;46947;-78
2023/03/24 03:57:16;;;;;;;;;;;;;;;13.50;47.93;100037.22;5356025;32;35393;-64
2023/03/24 04:00:19;;;;;;;;;;;;;;;13.85;46.93;100034.34;5360625;32;34311;-76
2023/03/24 04:03:44;;;;;;;;;;;;;;;13.82;46.82;100031.88;5368463;32;34579;-66
2023/03/24 04:06:52;;;;;;;;;;;;;;;14.01;46.13;100034.28;5341422;32;44772;-77
2023/03/24 04:09:57;;;;;;;;;;;;;;;13.92;46.30;100037.50;5369169;32;36239;-75
2023/03/24 04:13:15;;;;;;;;;;;;;;;14.56;44.69;100013.37;5358588;32;35027;-63
2023/03/24 04:16:17;;;;;;;;;;;;;;;13.44;47.44;100034.91;5362750;32;44957;-76
2023/03/24 04:19:41;;;;;;;;;;;;;;;14.25;45.42;100016.13;5372171;32;35726;-65
2023/03/24 04:23:02;;;;;;;;;;;;;;;13.82;46.76;100034.53;5355545;32;47043;-64
2023/03/24 04:26:25;;;;;;;;;;;;;;;13.88;46.55;100034.16;5372438;32;35243;-75
2023/03/24 04:29:32;;;;;;;;;;;;;;;13.43;47.77;100045.56;5361281;32;35633;-76
2023/03/24 04:32:40;;;;;;;;;;;;;;;13.12;48.61;100022.63;5359269;32;35978;-64
2023/03/24 04:35:51;;;;;;;;;;;;;;;14.20;45.77;100028.78;5374258;32;44775;-64
2023/03/24 04:38:53;;;;;;;;;;;;;;;14.32;45.11;100033.31;5356061;32;34942;-77
2023/03/24 04:42:00;;;;;;;;;;;;;;;13.39;47.37;100030.81;5365307;32;35203;-75
2023/03/24 04:45:03;;;;;;;;;;;;;;;12.69;49.64;100039.03;5357445;32;34024;-65
2023/03/24 04:48:07;;;;;;;;;;;;;;;13.62;47.41;100032.19;5359604;32;34347;-64
2023/03/24 04:51:09;;;;;;;;;;;;;;;14.29;45.26;100039.63;5370367;32;46227;-65
2023/03/24 04:54:11;;;;;;;;;;;;;;;13.41;47.31;100040.37;5357565;32;34691;-63
2023/03/24 04:57:14;;;;;;;;;;;;;;;13.19;48.26;100038.03;5372778;32;35764;-75
2023/03/24 05:00:17;;;;;;;;;;;;;;;13.87;46.26;100042.19;5359349;32;35660;-76
2023/03/24 05:03:19;;;;;;;;;;;;;;;13.15;48.50;100044.44;5370536;32;36162;-64
2023/03/24 05:06:21;;;;;;;;;;;;;;;12.78;50.31;100042.94;5339030;32;34763;-76
2023/03/24 05:09:24;;;;;;;;;;;;;;;13.24;49.65;100051.03;5357245;32;34792;-78
2023/03/24 05:12:26;;;;;;;;;;;;;;;12.84;50.96;100053.16;5372117;32;35236;-65
2023/03/24 05:15:28;;;;;;;;;;;;;;;12.43;52.28;100044.81;5357410;32;35926;-76
2023/03/24 05:18:30;;;;;;;;;;;;;;;12.38;52.42;100052.94;5371071;32;34904;-77
2023/03/24 05:21:32;;;;;;;;;;;;;;;12.55;51.96;100053.84;5356958;32;35509;-66
2023/03/24 05:24:34;;;;;;;;;;;;;;;12.62;51.67;100055.22;5370021;32;34840;-77
2023/03/24 05:27:36;;;;;;;;;;;;;;;12.67;51.48;100063.75;5356842;32;35719;-65
2023/03/24 05:30:38;;;;;;;;;;;;;;;12.68;51.71;100057.53;5356301;32;43756;-66
2023/03/24 05:33:40;;;;;;;;;;;;;;;13.05;50.96;100058.22;5372708;32;35584;-64
2023/03/24 05:36:42;;;;;;;;;;;;;;;14.36;46.30;100055.97;5358663;32;34842;-76
2023/03/24 05:39:45;;;;;;;;;;;;;;;14.84;44.47;100057.47;5372832;32;37213;-64
2023/03/24 05:42:48;;;;;;;;;;;;;;;14.78;44.05;100057.00;5352074;32;35438;-76
2023/03/24 05:45:49;;;;;;;;;;;;;;;15.00;43.66;100065.28;5363788;32;35148;-77
2023/03/24 05:48:51;;;;;;;;;;;;;;;14.51;44.48;100063.03;5360928;32;34922;-73
2023/03/24 05:51:54;;;;;;;;;;;;;;;15.64;42.22;100063.03;5357286;32;34859;-65
2023/03/24 05:54:57;;;;;;;;;;;;;;;15.76;41.78;100061.37;5373784;32;34407;-65
2023/03/24 05:58:02;;;;;;;;;;;;;;;14.68;43.39;100075.22;5356034;32;34879;-65
2023/03/24 06:01:07;;;;;;;;;;;;;;;14.89;43.27;100065.97;5373703;32;35789;-77
2023/03/24 06:04:10;;;;;;;;;;;;;;;15.96;41.09;100075.00;5348778;32;45424;-64
2023/03/24 06:07:12;;;;;;;;;;;;;;;16.28;40.07;100068.50;5361866;32;34913;-65
2023/03/24 06:10:17;;;;;;;;;;;;;;;18.43;35.92;100057.44;5365431;32;34635;-65
2023/03/24 06:13:19;;;;;;;;;;;;;;;16.81;37.90;100058.69;5357532;32;35442;-65
2023/03/24 06:16:22;;;;;;;;;;;;;;;16.68;38.82;100069.25;5371771;32;35264;-64
2023/03/24 06:19:25;;;;;;;;;;;;;;;17.43;37.15;100066.63;5355303;32;35644;-72
2023/03/24 06:22:28;;;;;;;;;;;;;;;17.23;37.74;100058.31;5372499;32;34823;-65
2023/03/24 06:25:32;;;;;;;;;;;;;;;16.77;38.61;100061.56;5357608;32;34720;-78
2023/03/24 06:28:34;;;;;;;;;;;;;;;16.90;38.60;100058.91;5364849;32;34777;-65
2023/03/24 06:31:36;;;;;;;;;;;;;;;18.38;35.51;100066.59;5366051;32;35094;-66
2023/03/24 06:34:39;;;;;;;;;;;;;;;17.03;37.89;100062.38;5357207;32;38964;-65
2023/03/24 06:37:41;;;;;;;;;;;;;;;17.69;36.86;100068.22;5371775;32;34354;-77
2023/03/24 06:40:43;;;;;;;;;;;;;;;17.93;36.48;100064.75;5359769;32;34134;-79
2023/03/24 06:43:45;;;;;;;;;;;;;;;17.64;36.78;100064.22;5373085;32;34792;-77
2023/03/24 06:46:48;;;;;;;;;;;;;;;17.83;36.38;100067.25;5359395;32;34684;-65
2023/03/24 06:49:50;;;;;;;;;;;;;;;17.69;36.68;100054.94;5367670;32;34879;-78
2023/03/24 06:52:52;;;;;;;;;;;;;;;18.72;34.75;100053.38;5367810;32;35448;-78
2023/03/24 06:55:55;;;;;;;;;;;;;;;18.22;35.36;100063.41;5359996;32;34825;-72
2023/03/24 06:58:56;;;;;;;;;;;;;;;19.00;33.82;100045.88;5379728;32;35302;-76
2023/03/24 07:02:00;;;;;;;;;;;;;;;19.42;33.52;100057.56;5363850;32;35068;-64
2023/03/24 07:05:06;;;;;;;;;;;;;;;19.23;33.42;100047.53;5363280;32;34474;-65
2023/03/24 07:08:08;;;;;;;;;;;;;;;20.78;31.11;100052.34;5364315;32;35362;-77
2023/03/24 07:11:30;;;;;;;;;;;;;;;20.35;32.01;100035.62;5367894;32;36225;-66
2023/03/24 07:14:32;;;;;;;;;;;;;;;20.09;32.02;100045.84;5387547;32;34536;-66
2023/03/24 07:17:34;;;;;;;;;;;;;;;22.73;28.24;100032.81;5366771;32;34363;-65
2023/03/24 07:20:37;;;;;;;;;;;;;;;22.09;28.90;100034.41;5381691;32;34374;-77
2023/03/24 07:23:39;;;;;;;;;;;;;;;21.52;29.47;100025.34;5368072;32;44815;-65
2023/03/24 07:26:41;;;;;;;;;;;;;;;21.13;29.97;100018.19;5378921;32;34778;-64
2023/03/24 07:29:43;;;;;;;;;;;;;;;21.16;30.40;100029.44;5373058;32;35261;-65
2023/03/24 07:32:45;;;;;;;;;;;;;;;20.23;31.83;100030.37;5366974;32;35122;-64
2023/03/24 07:35:47;;;;;;;;;;;;;;;21.54;29.46;100023.34;5384711;32;34820;-64
2023/03/24 07:38:50;;;;;;;;;;;;;;;21.88;29.42;100014.91;5370759;32;34717;-64
2023/03/24 07:41:51;;;;;;;;;;;;;;;23.94;26.11;100005.75;5381599;32;36268;-64
2023/03/24 07:44:53;;;;;;;;;;;;;;;23.98;25.88;100007.13;5373059;32;34917;-77
2023/03/24 07:48:00;;;;;;;;;;;;;;;22.16;28.16;100003.41;5378849;32;34578;-78
2023/03/24 07:51:02;;;;;;;;;;;;;;;24.14;25.52;100019.81;5379166;32;35271;-66
2023/03/24 07:54:05;;;;;;;;;;;;;;;23.15;27.25;100010.97;5369542;32;35340;-66
2023/03/24 07:57:07;;;;;;;;;;;;;;;22.10;28.20;100017.34;5385924;32;34376;-65
2023/03/24 08:00:16;;;;;;;;;;;;;;;24.20;25.65;100002.25;5365878;32;46568;-79
2023/03/24 08:03:24;;;;;;;;;;;;;;;22.16;28.47;100006.06;5367649;32;35267;-65
2023/03/24 08:06:28;;;;;;;;;;;;;;;24.36;25.06;99993.50;5353997;32;35001;-74
2023/03/24 08:09:30;;;;;;;;;;;;;;;23.88;25.74;100008.19;5377951;32;36296;-64
2023/03/24 08:12:32;;;;;;;;;;;;;;;23.40;26.52;99999.50;5380683;32;34994;-79
2023/03/24 08:15:34;;;;;;;;;;;;;;;20.97;30.17;100003.50;5370238;32;36771;-66
2023/03/24 08:18:37;;;;;;;;;;;;;;;22.82;27.27;99983.72;5384229;32;35020;-77
2023/03/24 08:21:39;;;;;;;;;;;;;;;20.63;30.71;99988.75;5372016;32;44395;-77
2023/03/24 08:24:41;;;;;;;;;;;;;;;20.65;30.94;99984.97;5381685;32;35236;-77
2023/03/24 08:27:43;;;;;;;;;;;;;;;20.84;30.59;99978.84;5366148;32;34112;-78
2023/03/24 08:30:46;;;;;;;;;;;;;;;20.26;31.57;99981.22;5370196;32;34307;-78
2023/03/24 08:33:48;;;;;;;;;;;;;;;20.75;31.17;99955.66;5382924;32;35659;-78
2023/03/24 08:36:50;;;;;;;;;;;;;;;19.92;32.30;99968.09;5370242;32;33778;-75
2023/03/24 08:39:57;;;;;;;;;;;;;;;20.29;31.98;99976.50;5383709;32;35791;-65
2023/03/24 08:43:01;;;;;;;;;;;;;;;19.64;33.27;99972.25;5367114;32;35468;-77
2023/03/24 08:46:05;;;;;;;;;;;;;;;21.15;30.65;99960.94;5385988;32;35485;-65
2023/03/24 08:49:07;;;;;;;;;;;;;;;20.70;31.44;99957.88;5372356;32;36844;-65
2023/03/24 08:52:09;;;;;;;;;;;;;;;21.55;29.92;99960.03;5367121;32;44553;-79
2023/03/24 08:55:11;;;;;;;;;;;;;;;21.31;30.48;99957.75;5385129;32;34814;-66
2023/03/24 08:58:17;;;;;;;;;;;;;;;22.70;28.38;99937.53;5369243;32;34332;-67
2023/03/24 09:01:20;;;;;;;;;;;;;;;23.10;27.62;99947.06;5381648;32;36008;-65
2023/03/24 09:04:22;;;;;;;;;;;;;;;22.04;29.50;99945.63;5356562;32;34891;-66
2023/03/24 09:07:24;;;;;;;;;;;;;;;22.35;28.75;99950.81;5370193;32;35448;-72
2023/03/24 09:10:26;;;;;;;;;;;;;;;23.57;27.03;99946.88;5375268;32;35335;-66
2023/03/24 09:13:28;;;;;;;;;;;;;;;24.00;26.39;99924.59;5367910;32;35098;-66
2023/03/24 09:16:30;;;;;;;;;;;;;;;24.32;25.81;99941.91;5383206;32;34840;-65
2023/03/24 09:19:32;;;;;;;;;;;;;;;23.52;27.02;99943.81;5374578;32;36473;-76
2023/03/24 09:22:38;;;;;;;;;;;;;;;23.43;27.31;99939.34;5381609;32;34895;-66
2023/03/24 09:25:43;;;;;;;;;;;;;;;23.34;27.30;99941.13;5364751;32;44534;-66
2023/03/24 09:28:45;;;;;;;;;;;;;;;22.57;28.66;99947.75;5376540;32;33611;-77
2023/03/24 09:31:47;;;;;;;;;;;;;;;23.22;27.72;99945.84;5373834;32;35645;-78
2023/03/24 09:34:49;;;;;;;;;;;;;;;25.04;25.26;99928.97;5369088;32;36408;-77
2023/03/24 09:37:51;;;;;;;;;;;;;;;24.64;25.74;99927.00;5381809;32;34495;-77
2023/03/24 09:40:55;;;;;;;;;;;;;;;25.36;24.78;99921.00;5369240;32;34803;-73
2023/03/24 09:43:56;;;;;;;;;;;;;;;24.38;26.28;99924.34;5383023;32;35239;-65
2023/03/24 09:47:00;;;;;;;;;;;;;;;24.45;26.49;99909.28;5369136;32;34689;-66
2023/03/24 09:50:05;;;;;;;;;;;;;;;26.30;24.12;99899.94;5375122;32;35058;-65
2023/03/24 09:53:09;;;;;;;;;;;;;;;25.58;24.95;99887.22;5378376;32;34328;-77
2023/03/24 09:56:15;;;;;;;;;;;;;;;27.47;22.83;99886.34;5368516;32;44603;-65
2023/03/24 09:59:21;;;;;;;;;;;;;;;25.69;24.87;99891.41;5384949;32;35376;-66
2023/03/24 10:02:23;;;;;;;;;;;;;;;25.19;25.69;99880.81;5371822;32;35775;-82
2023/03/24 10:05:36;;;;;;;;;;;;;;;26.61;24.06;99875.75;5365581;32;35025;-69
2023/03/24 10:08:42;;;;;;;;;;;;;;;27.67;22.91;99865.09;5371461;32;46685;-69
2023/03/24 10:11:47;;;;;;;;;;;;;;;27.48;22.72;99865.59;5367544;32;34852;-80
2023/03/24 10:14:52;;;;;;;;;;;;;;;27.80;22.40;99864.50;5385054;32;35863;-67
2023/03/24 10:17:56;;;;;;;;;;;;;;;27.87;22.07;99851.94;5367621;32;35443;-79
2023/03/24 10:21:01;;;;;;;;;;;;;;;29.39;20.70;99855.69;5383858;32;34692;-68
2023/03/24 10:24:13;;;;;;;;;;;;;;;28.94;21.42;99854.22;5368731;32;35601;-68
2023/03/24 10:27:35;;;;;;;;;;;;;;;28.40;21.72;99847.28;5370935;32;44610;-78
2023/03/24 10:30:38;;;;;;;;;;;;;;;28.21;21.94;99843.28;5371839;32;34280;-77
2023/03/24 10:33:43;;;;;;;;;;;;;;;26.86;23.58;99836.03;5369431;32;45326;-80
2023/03/24 10:36:45;;;;;;;;;;;;;;;28.25;21.87;99814.03;5384340;32;34466;-81
2023/03/24 10:39:47;;;;;;;;;;;;;;;28.87;21.25;99829.78;5370255;32;34634;-69
2023/03/24 10:42:49;;;;;;;;;;;;;;;31.45;18.40;99811.47;5361033;32;35425;-80
2023/03/24 10:46:11;;;;;;;;;;;;;;;30.66;18.95;99822.97;5380778;32;44627;-79
2023/03/24 10:49:18;;;;;;;;;;;;;;;28.77;20.85;99824.66;5369619;32;35489;-80
2023/03/24 10:52:23;;;;;;;;;;;;;;;26.92;22.41;99828.06;5381570;32;34610;-70
2023/03/24 10:55:30;;;;;;;;;;;;;;;29.35;19.91;99819.22;5369305;32;35151;-69
2023/03/24 10:58:36;;;;;;;;;;;;;;;29.40;19.58;99811.34;5379491;32;34958;-81
2023/03/24 11:01:38;;;;;;;;;;;;;;;27.27;21.91;99807.75;5370849;32;34981;-70
2023/03/24 11:04:40;;;;;;;;;;;;;;;28.09;21.25;99812.38;5357606;32;34841;-82
2023/03/24 11:07:46;;;;;;;;;;;;;;;28.26;21.16;99810.28;5375077;32;34964;-83
2023/03/24 11:10:48;;;;;;;;;;;;;;;28.72;20.59;99804.63;5368951;32;34213;-81
2023/03/24 11:13:55;;;;;;;;;;;;;;;27.75;21.60;99812.91;5380409;32;35340;-70
2023/03/24 11:17:02;;;;;;;;;;;;;;;27.02;22.58;99803.56;5369074;32;35089;-70
2023/03/24 11:20:07;;;;;;;;;;;;;;;26.80;23.04;99802.53;5378268;32;34524;-83
2023/03/24 11:23:09;;;;;;;;;;;;;;;26.12;23.62;99798.62;5378477;32;43038;-71
2023/03/24 11:26:15;;;;;;;;;;;;;;;25.84;24.14;99782.09;5371039;32;35132;-82
2023/03/24 11:29:23;;;;;;;;;;;;;;;26.15;23.74;99784.00;5384766;32;35195;-82
2023/03/24 11:32:26;;;;;;;;;;;;;;;26.54;23.19;99775.09;5368532;32;34725;-73
2023/03/24 11:35:30;;;;;;;;;;;;;;;28.21;21.36;99764.94;5386574;32;34459;-71
2023/03/24 11:38:42;;;;;;;;;;;;;;;27.55;22.02;99758.59;5374002;32;45068;-73
2023/03/24 11:41:51;;;;;;;;;;;;;;;28.32;20.96;99755.53;5367669;32;34612;-71
2023/03/24 11:44:54;;;;;;;;;;;;;;;26.53;23.08;99760.75;5383356;32;36690;-78
2023/03/24 11:47:57;;;;;;;;;;;;;;;28.75;20.48;99744.78;5364735;32;34979;-78
2023/03/24 11:50:59;;;;;;;;;;;;;;;30.07;18.72;99734.91;5386755;32;35199;-78
2023/03/24 11:54:02;;;;;;;;;;;;;;;28.87;19.85;99724.28;5367188;32;34782;-67
2023/03/24 11:57:06;;;;;;;;;;;;;;;29.33;19.45;99727.41;5379073;32;34008;-66
2023/03/24 12:00:25;;;;;;;;;;;;;;;28.75;19.91;99721.28;5372304;32;49447;-76
2023/03/24 12:03:45;;;;;;;;;;;;;;;26.90;22.19;99716.00;5365936;32;34472;-67
2023/03/24 12:06:47;;;;;;;;;;;;;;;28.07;20.71;99714.47;5369151;32;44728;-77
2023/03/24 12:09:54;;;;;;;;;;;;;;;27.70;20.80;99704.66;5372474;32;33946;-74
2023/03/24 12:13:00;;;;;;;;;;;;;;;27.44;21.24;99703.22;5378139;32;35061;-78
2023/03/24 12:16:08;;;;;;;;;;;;;;;28.72;19.82;99688.34;5377682;32;34505;-78
2023/03/24 12:19:10;;;;;;;;;;;;;;;29.20;19.13;99669.66;5367198;32;45047;-66
2023/03/24 12:22:12;;;;;;;;;;;;;;;29.99;18.15;99670.09;5384054;32;34731;-65
2023/03/24 12:25:20;;;;;;;;;;;;;;;29.35;18.57;99681.19;5370965;32;34789;-66
2023/03/24 12:28:26;;;;;;;;;;;;;;;27.95;20.08;99673.63;5384939;32;34694;-65
2023/03/24 12:31:37;;;;;;;;;;;;;;;28.56;19.53;99659.75;5359991;32;34160;-66
2023/03/24 12:34:41;;;;;;;;;;;;;;;29.30;18.64;99662.81;5369381;32;47184;-78
2023/03/24 12:37:55;;;;;;;;;;;;;;;28.20;19.64;99674.09;5380221;32;34446;-77
2023/03/24 12:41:06;;;;;;;;;;;;;;;27.59;20.34;99645.72;5366327;32;34837;-65
2023/03/24 12:44:10;;;;;;;;;;;;;;;27.57;20.56;99654.00;5379290;32;34108;-77
2023/03/24 12:47:22;;;;;;;;;;;;;;;28.64;19.50;99637.97;5368503;32;43522;-78
2023/03/24 12:50:36;;;;;;;;;;;;;;;28.35;19.95;99640.84;5370968;32;35092;-66
2023/03/24 12:53:56;;;;;;;;;;;;;;;28.18;19.97;99638.34;5380181;32;36706;-76
2023/03/24 12:57:06;;;;;;;;;;;;;;;27.57;20.88;99626.16;5364689;32;35091;-77
2023/03/24 13:00:17;;;;;;;;;;;;;;;28.74;19.60;99618.72;5374984;32;41284;-77
2023/03/24 13:03:46;;;;;;;;;;;;;;;29.55;18.47;99619.06;5362210;32;33129;-66
2023/03/24 13:06:53;;;;;;;;;;;;;;;28.09;20.29;99630.56;5350561;32;45036;-65
2023/03/24 13:10:05;;;;;;;;;;;;;;;28.51;19.76;99627.87;5366144;32;35562;-66
2023/03/24 13:13:20;;;;;;;;;;;;;;;27.43;21.02;99620.56;5365779;32;33605;-77
2023/03/24 13:16:22;;;;;;;;;;;;;;;30.30;18.31;99609.12;5376154;32;34546;-66
2023/03/24 13:19:24;;;;;;;;;;;;;;;32.30;16.22;99603.00;5366513;32;35664;-65
2023/03/24 13:22:26;;;;;;;;;;;;;;;31.80;16.31;99586.56;5366104;32;34653;-66
2023/03/24 13:25:35;;;;;;;;;;;;;;;30.17;17.96;99591.78;5378450;32;34599;-80
2023/03/24 13:28:39;;;;;;;;;;;;;;;30.96;17.37;99587.44;5364132;32;34043;-80
2023/03/24 13:31:43;;;;;;;;;;;;;;;30.36;17.85;99598.28;5372620;32;44824;-77
2023/03/24 13:35:05;;;;;;;;;;;;;;;31.22;17.00;99592.78;5359513;32;34932;-77
2023/03/24 13:38:20;;;;;;;;;;;;;;;31.49;16.73;99590.88;5367749;32;36433;-78
2023/03/24 13:41:23;;;;;;;;;;;;;;;29.76;18.30;99589.19;5370443;32;37012;-73
2023/03/24 13:44:38;;;;;;;;;;;;;;;27.80;20.32;99589.94;5364023;32;34827;-65
2023/03/24 13:47:51;;;;;;;;;;;;;;;26.12;22.33;99580.50;5362394;32;44477;-66
2023/03/24 13:51:00;;;;;;;;;;;;;;;25.89;22.65;99593.97;5359630;32;35896;-73
2023/03/24 13:54:06;;;;;;;;;;;;;;;25.03;23.65;99588.56;5368180;32;35358;-78
2023/03/24 13:57:13;;;;;;;;;;;;;;;24.50;24.26;99588.16;5362622;32;34862;-76
2023/03/24 14:00:17;;;;;;;;;;;;;;;24.73;24.29;99579.38;5366849;32;35253;-78
2023/03/24 14:03:32;;;;;;;;;;;;;;;25.32;23.60;99582.63;5377944;32;34366;-66
2023/03/24 14:06:47;;;;;;;;;;;;;;;24.97;24.14;99578.50;5343837;32;35143;-67
2023/03/24 14:09:56;;;;;;;;;;;;;;;25.61;23.27;99561.28;5326497;32;884458;-67
2023/03/24 14:13:01;;;;;;;;;;;;;;;25.50;23.38;99571.59;5375204;32;35803;-77
2023/03/24 14:16:22;;;;;;;;;;;;;;;25.75;23.18;99558.87;5360731;32;33737;-78
2023/03/24 14:19:30;;;;;;;;;;;;;;;25.48;23.49;99552.13;5377048;32;35148;-65
2023/03/24 14:22:33;;;;;;;;;;;;;;;25.63;23.20;99537.75;5364973;32;35676;-77
2023/03/24 14:25:36;;;;;;;;;;;;;;;25.18;23.98;99556.44;5371575;32;35207;-65
2023/03/24 14:28:42;;;;;;;;;;;;;;;24.71;24.71;99555.38;5373054;32;35776;-65
2023/03/24 14:31:46;;;;;;;;;;;;;;;25.30;24.10;99558.56;5344134;32;45701;-66
2023/03/24 14:34:56;;;;;;;;;;;;;;;25.15;24.27;99552.25;5375476;32;33864;-78
2023/03/24 14:38:00;;;;;;;;;;;;;;;25.26;24.10;99549.22;5359180;32;36110;-65
2023/03/24 14:41:13;;;;;;;;;;;;;;;24.67;24.81;99550.53;5370559;32;35550;-79
2023/03/24 14:44:15;;;;;;;;;;;;;;;25.00;24.40;99553.97;5360099;32;45401;-78
2023/03/24 14:47:36;;;;;;;;;;;;;;;24.98;24.40;99540.69;5357314;32;34793;-66
2023/03/24 14:50:38;;;;;;;;;;;;;;;24.81;24.73;99553.34;5359244;32;37993;-66
2023/03/24 14:53:40;;;;;;;;;;;;;;;24.91;24.68;99544.25;5356679;32;33892;-67
2023/03/24 14:56:44;;;;;;;;;;;;;;;24.88;24.70;99547.28;5374599;32;35559;-64
2023/03/24 14:59:48;;;;;;;;;;;;;;;24.77;24.88;99541.25;5367185;32;34064;-77
2023/03/24 15:02:51;;;;;;;;;;;;;;;24.75;24.85;99537.91;5363993;32;34356;-66
2023/03/24 15:05:53;;;;;;;;;;;;;;;24.73;24.89;99539.06;5350582;32;35716;-65
2023/03/24 15:09:00;;;;;;;;;;;;;;;24.30;25.52;99527.72;5363537;32;34919;-77
2023/03/24 15:12:02;;;;;;;;;;;;;;;24.86;24.74;99531.34;5373226;32;34657;-66
2023/03/24 15:15:04;;;;;;;;;;;;;;;24.50;25.11;99512.09;5350083;32;35762;-80
2023/03/24 15:18:13;;;;;;;;;;;;;;;24.67;25.04;99521.81;5370520;32;34972;-77
2023/03/24 15:21:21;;;;;;;;;;;;;;;24.56;25.23;99522.16;5359509;32;44613;-78
2023/03/24 15:24:24;;;;;;;;;;;;;;;23.27;27.01;99519.16;5362557;32;34556;-69
2023/03/24 15:27:27;;;;;;;;;;;;;;;24.47;25.25;99510.63;5372445;32;35502;-65
2023/03/24 15:30:30;;;;;;;;;;;;;;;24.26;25.68;99513.78;5354941;32;35738;-78
2023/03/24 15:33:42;;;;;;;;;;;;;;;24.68;25.05;99515.44;5371444;32;35424;-65
2023/03/24 15:36:45;;;;;;;;;;;;;;;24.66;24.93;99503.16;5355327;32;45087;-77
2023/03/24 15:39:47;;;;;;;;;;;;;;;24.27;25.56;99512.75;5366341;32;35378;-78
2023/03/24 15:42:49;;;;;;;;;;;;;;;24.30;25.56;99504.38;5346614;32;35024;-78
2023/03/24 15:45:52;;;;;;;;;;;;;;;23.73;26.35;99509.72;5353460;32;34386;-75
2023/03/24 15:49:15;;;;;;;;;;;;;;;23.47;26.88;99508.97;5363710;32;44466;-78
2023/03/24 15:52:34;;;;;;;;;;;;;;;24.22;25.82;99509.75;5351827;32;35123;-66
2023/03/24 15:55:36;;;;;;;;;;;;;;;23.95;26.07;99505.53;5370050;32;34800;-77
2023/03/24 15:58:44;;;;;;;;;;;;;;;23.97;26.09;99502.72;5356607;32;38014;-72